createdAt,value
2023-02-26T00:00:25.256Z,5.72
2023-02-26T00:02:53.090Z,5.73
2023-02-26T00:05:20.915Z,5.37
2023-02-26T00:07:48.660Z,5.52
2023-02-26T00:10:17.817Z,5.67
2023-02-26T00:12:46.588Z,5.46
2023-02-26T00:15:17.739Z,5.61
2023-02-26T00:17:53.022Z,5.59
2023-02-26T00:20:21.021Z,5.41
2023-02-26T00:22:49.337Z,5.54
2023-02-26T00:25:18.547Z,5.40
2023-02-26T00:27:46.813Z,5.31
2023-02-26T00:30:15.032Z,5.31
2023-02-26T00:32:43.696Z,5.41
2023-02-26T00:35:15.791Z,5.49
2023-02-26T00:37:59.035Z,5.36
2023-02-26T00:40:35.978Z,5.35
2023-02-26T00:43:04.887Z,5.39
2023-02-26T00:45:35.539Z,5.21
2023-02-26T00:48:33.442Z,5.33
2023-02-26T00:51:13.338Z,5.45
2023-02-26T00:53:48.028Z,5.30
2023-02-26T00:56:17.136Z,5.35
2023-02-26T00:58:44.811Z,5.19
2023-02-26T01:01:12.600Z,5.24
2023-02-26T01:03:40.857Z,5.21
2023-02-26T01:06:12.666Z,5.18
2023-02-26T01:08:47.804Z,5.22
2023-02-26T01:11:17.437Z,5.12
2023-02-26T01:13:45.636Z,4.91
2023-02-26T01:16:18.895Z,4.99
2023-02-26T01:18:51.437Z,5.10
2023-02-26T01:21:27.934Z,4.85
2023-02-26T01:23:55.775Z,5.12
2023-02-26T01:26:28.392Z,4.87
2023-02-26T01:28:57.209Z,4.71
2023-02-26T01:31:36.260Z,4.52
2023-02-26T01:34:11.023Z,4.91
2023-02-26T01:36:44.968Z,5.00
2023-02-26T01:39:21.713Z,4.88
2023-02-26T01:41:53.204Z,4.65
2023-02-26T01:44:27.627Z,4.71
2023-02-26T01:47:07.459Z,4.66
2023-02-26T01:49:35.685Z,4.71
2023-02-26T01:52:05.292Z,4.71
2023-02-26T01:54:35.767Z,4.57
2023-02-26T01:57:08.767Z,4.74
2023-02-26T01:59:40.670Z,4.74
2023-02-26T02:02:11.045Z,4.78
2023-02-26T02:04:39.424Z,4.63
2023-02-26T02:07:08.183Z,4.86
2023-02-26T02:09:36.017Z,4.81
2023-02-26T02:12:14.516Z,4.85
2023-02-26T02:14:54.939Z,4.45
2023-02-26T02:17:30.796Z,4.70
2023-02-26T02:20:27.554Z,4.41
2023-02-26T02:23:18.632Z,4.25
2023-02-26T02:26:15.454Z,4.05
2023-02-26T02:29:03.804Z,4.41
2023-02-26T02:31:35.998Z,4.36
2023-02-26T02:34:10.106Z,4.65
2023-02-26T02:36:46.059Z,4.35
2023-02-26T02:39:19.513Z,4.25
2023-02-26T02:41:51.196Z,4.46
2023-02-26T02:44:22.763Z,4.27
2023-02-26T02:46:54.805Z,4.37
2023-02-26T02:49:27.954Z,4.24
2023-02-26T02:52:00.288Z,4.38
2023-02-26T02:54:32.452Z,4.13
2023-02-26T02:57:05.529Z,4.13
2023-02-26T02:59:37.283Z,4.22
2023-02-26T03:02:17.697Z,4.48
2023-02-26T03:04:46.257Z,4.39
2023-02-26T03:07:14.076Z,4.40
2023-02-26T03:09:42.193Z,4.59
2023-02-26T03:12:09.923Z,4.30
2023-02-26T03:14:38.220Z,4.19
2023-02-26T03:17:24.260Z,4.27
2023-02-26T03:20:07.376Z,4.12
2023-02-26T03:22:42.188Z,4.16
2023-02-26T03:25:15.446Z,4.01
2023-02-26T03:27:50.527Z,3.90
2023-02-26T03:30:23.642Z,3.89
2023-02-26T03:33:01.855Z,3.94
2023-02-26T03:35:37.030Z,3.58
2023-02-26T03:38:10.657Z,3.94
2023-02-26T03:40:44.584Z,3.99
2023-02-26T03:43:18.384Z,3.66
2023-02-26T03:45:50.540Z,3.91
2023-02-26T03:48:25.854Z,3.92
2023-02-26T03:50:56.853Z,3.41
2023-02-26T03:53:28.181Z,3.53
2023-02-26T03:56:01.377Z,3.59
2023-02-26T03:58:29.354Z,3.35
2023-02-26T04:01:02.572Z,3.32
2023-02-26T04:03:37.603Z,3.48
2023-02-26T04:06:06.283Z,3.53
2023-02-26T04:08:34.134Z,3.61
2023-02-26T04:11:07.849Z,3.85
2023-02-26T04:13:36.210Z,3.60
2023-02-26T04:16:04.867Z,3.31
2023-02-26T04:18:34.017Z,3.55
2023-02-26T04:21:01.997Z,3.41
2023-02-26T04:23:29.903Z,3.71
2023-02-26T04:25:57.631Z,3.42
2023-02-26T04:28:25.443Z,3.36
2023-02-26T04:30:53.204Z,3.46
2023-02-26T04:33:20.999Z,3.57
2023-02-26T04:35:50.104Z,3.48
2023-02-26T04:38:17.834Z,3.31
2023-02-26T04:40:45.916Z,3.71
2023-02-26T04:43:13.663Z,3.72
2023-02-26T04:45:41.364Z,3.84
2023-02-26T04:48:09.122Z,3.85
2023-02-26T04:50:36.826Z,3.54
2023-02-26T04:53:06.144Z,3.72
2023-02-26T04:55:35.045Z,3.68
2023-02-26T04:58:02.914Z,3.62
2023-02-26T05:00:30.772Z,3.75
2023-02-26T05:02:58.490Z,3.65
2023-02-26T05:05:26.422Z,3.52
2023-02-26T05:07:56.744Z,3.45
2023-02-26T05:10:26.304Z,3.17
2023-02-26T05:12:54.108Z,3.11
2023-02-26T05:15:21.812Z,3.17
2023-02-26T05:17:49.568Z,3.09
2023-02-26T05:20:17.627Z,2.92
2023-02-26T05:22:45.346Z,2.77
2023-02-26T05:25:13.568Z,3.18
2023-02-26T05:27:43.747Z,2.84
2023-02-26T05:30:14.649Z,2.89
2023-02-26T05:32:42.405Z,3.00
2023-02-26T05:35:10.796Z,2.94
2023-02-26T05:37:38.920Z,3.02
2023-02-26T05:40:10.475Z,3.14
2023-02-26T05:42:38.364Z,3.03
2023-02-26T05:45:08.965Z,3.07
2023-02-26T05:47:37.350Z,3.07
2023-02-26T05:50:06.400Z,3.14
2023-02-26T05:52:34.293Z,3.22
2023-02-26T05:55:02.141Z,2.94
2023-02-26T05:57:29.971Z,2.97
2023-02-26T05:59:57.725Z,2.90
2023-02-26T06:02:27.039Z,3.01
2023-02-26T06:04:54.748Z,3.14
2023-02-26T06:07:22.501Z,3.07
2023-02-26T06:09:50.391Z,3.09
2023-02-26T06:12:18.152Z,3.24
2023-02-26T06:14:45.849Z,3.12
2023-02-26T06:17:13.615Z,3.07
2023-02-26T06:19:42.737Z,3.16
2023-02-26T06:22:10.452Z,3.14
2023-02-26T06:24:38.201Z,3.16
2023-02-26T06:27:05.927Z,3.16
2023-02-26T06:29:34.437Z,2.99
2023-02-26T06:32:02.262Z,3.11
2023-02-26T06:34:30.023Z,3.02
2023-02-26T06:36:59.280Z,2.89
2023-02-26T06:39:27.082Z,2.93
2023-02-26T06:41:54.875Z,2.98
2023-02-26T06:44:22.759Z,2.92
2023-02-26T06:46:50.498Z,2.74
2023-02-26T06:49:18.560Z,3.07
2023-02-26T06:51:46.316Z,2.91
2023-02-26T06:54:15.429Z,2.95
2023-02-26T06:56:43.196Z,2.88
2023-02-26T06:59:10.943Z,2.93
2023-02-26T07:01:39.177Z,3.01
2023-02-26T07:04:06.927Z,3.12
2023-02-26T07:06:34.654Z,2.89
2023-02-26T07:09:02.495Z,2.94
2023-02-26T07:11:31.685Z,3.00
2023-02-26T07:13:59.435Z,3.09
2023-02-26T07:16:27.566Z,2.89
2023-02-26T07:18:55.505Z,2.72
2023-02-26T07:21:23.219Z,2.91
2023-02-26T07:23:50.922Z,3.08
2023-02-26T07:26:18.732Z,2.93
2023-02-26T07:28:47.821Z,3.30
2023-02-26T07:31:16.608Z,3.22
2023-02-26T07:33:44.481Z,3.30
2023-02-26T07:36:12.208Z,3.35
2023-02-26T07:38:39.999Z,3.37
2023-02-26T07:41:07.823Z,3.42
2023-02-26T07:43:35.848Z,3.26
2023-02-26T07:46:05.855Z,3.49
2023-02-26T07:48:33.636Z,3.35
2023-02-26T07:51:01.474Z,3.47
2023-02-26T07:53:29.249Z,3.40
2023-02-26T07:55:57.115Z,3.49
2023-02-26T07:58:24.854Z,3.67
2023-02-26T08:00:53.368Z,3.68
2023-02-26T08:03:22.558Z,3.77
2023-02-26T08:05:50.281Z,4.02
2023-02-26T08:08:20.943Z,4.12
2023-02-26T08:10:48.676Z,4.18
2023-02-26T08:13:16.383Z,3.78
2023-02-26T08:15:44.924Z,4.29
2023-02-26T08:18:13.376Z,4.16
2023-02-26T08:20:42.496Z,4.28
2023-02-26T08:23:10.225Z,4.30
2023-02-26T08:25:38.059Z,4.42
2023-02-26T08:28:06.267Z,4.41
2023-02-26T08:30:34.015Z,3.95
2023-02-26T08:33:01.804Z,4.42
2023-02-26T08:35:29.563Z,4.40
2023-02-26T08:37:58.767Z,4.49
2023-02-26T08:40:26.571Z,4.48
2023-02-26T08:42:54.301Z,4.49
2023-02-26T08:45:21.989Z,4.43
2023-02-26T08:47:56.597Z,4.64
2023-02-26T08:50:25.004Z,5.09
2023-02-26T08:52:52.840Z,4.82
2023-02-26T08:55:22.063Z,4.99
2023-02-26T08:57:49.828Z,5.10
2023-02-26T09:00:18.597Z,5.16
2023-02-26T09:02:47.409Z,5.18
2023-02-26T09:05:15.870Z,5.57
2023-02-26T09:07:44.577Z,5.52
2023-02-26T09:10:13.840Z,5.61
2023-02-26T09:12:42.952Z,5.69
2023-02-26T09:15:12.448Z,5.34
2023-02-26T09:17:40.368Z,5.33
2023-02-26T09:20:09.981Z,5.58
2023-02-26T09:22:38.339Z,5.78
2023-02-26T09:25:07.449Z,5.15
2023-02-26T09:27:36.393Z,5.26
2023-02-26T09:30:06.792Z,5.39
2023-02-26T09:32:34.750Z,5.64
2023-02-26T09:35:02.798Z,5.75
2023-02-26T09:37:30.554Z,5.90
2023-02-26T09:39:58.307Z,5.91
2023-02-26T09:42:39.482Z,6.25
2023-02-26T09:45:15.387Z,6.27
2023-02-26T09:47:47.768Z,6.47
2023-02-26T09:50:20.424Z,6.57
2023-02-26T09:52:53.391Z,6.48
2023-02-26T09:55:29.373Z,6.53
2023-02-26T09:58:01.319Z,6.30
2023-02-26T10:00:36.603Z,6.65
2023-02-26T10:03:18.371Z,6.96
2023-02-26T10:06:06.985Z,6.52
2023-02-26T10:08:41.652Z,6.86
2023-02-26T10:11:14.992Z,6.89
2023-02-26T10:13:57.104Z,6.73
2023-02-26T10:16:31.617Z,7.49
2023-02-26T10:19:05.864Z,7.41
2023-02-26T10:21:39.621Z,7.71
2023-02-26T10:24:13.790Z,7.71
2023-02-26T10:26:44.688Z,7.31
2023-02-26T10:29:23.130Z,7.51
2023-02-26T10:32:07.158Z,7.84
2023-02-26T10:34:37.282Z,7.11
2023-02-26T10:37:15.032Z,7.33
2023-02-26T10:39:48.595Z,7.41
2023-02-26T10:42:18.936Z,7.14
2023-02-26T10:44:56.423Z,7.38
2023-02-26T10:47:36.682Z,7.68
2023-02-26T10:50:07.088Z,7.73
2023-02-26T10:52:37.080Z,7.87
2023-02-26T10:55:29.976Z,7.81
2023-02-26T10:58:06.657Z,7.66
2023-02-26T11:00:36.279Z,8.17
2023-02-26T11:03:07.492Z,8.13
2023-02-26T11:05:35.739Z,8.16
2023-02-26T11:08:10.430Z,7.90
2023-02-26T11:10:45.971Z,8.21
2023-02-26T11:13:13.897Z,8.27
2023-02-26T11:15:42.121Z,8.22
2023-02-26T11:18:17.782Z,8.41
2023-02-26T11:20:47.924Z,8.28
2023-02-26T11:23:19.870Z,7.80
2023-02-26T11:25:48.128Z,7.77
2023-02-26T11:28:23.437Z,7.70
2023-02-26T11:30:54.237Z,7.97
2023-02-26T11:33:28.953Z,8.17
2023-02-26T11:36:01.382Z,7.64
2023-02-26T11:38:30.079Z,8.22
2023-02-26T11:40:59.434Z,8.07
2023-02-26T11:43:34.666Z,7.70
2023-02-26T11:46:05.902Z,7.63
2023-02-26T11:48:41.673Z,8.01
2023-02-26T11:51:16.300Z,7.91
2023-02-26T11:53:54.204Z,7.70
2023-02-26T11:56:27.348Z,8.27
2023-02-26T11:58:56.430Z,8.63
2023-02-26T12:01:29.362Z,8.56
2023-02-26T12:04:03.401Z,8.28
2023-02-26T12:06:31.360Z,8.14
2023-02-26T12:09:00.128Z,8.53
2023-02-26T12:11:44.265Z,8.35
2023-02-26T12:14:32.525Z,8.61
2023-02-26T12:17:12.971Z,8.92
2023-02-26T12:19:51.760Z,8.50
2023-02-26T12:22:37.339Z,8.45
2023-02-26T12:25:31.238Z,8.67
2023-02-26T12:28:24.612Z,9.02
2023-02-26T12:31:07.926Z,8.79
2023-02-26T12:33:45.950Z,9.03
2023-02-26T12:36:28.289Z,9.16
2023-02-26T12:39:13.350Z,9.13
2023-02-26T12:41:50.858Z,9.16
2023-02-26T12:44:30.416Z,9.06
2023-02-26T12:47:18.576Z,9.32
2023-02-26T12:50:03.429Z,9.18
2023-02-26T12:53:10.673Z,9.21
2023-02-26T12:55:46.440Z,9.66
2023-02-26T12:58:31.859Z,9.49
2023-02-26T13:01:14.681Z,9.44
2023-02-26T13:04:26.467Z,9.22
2023-02-26T13:07:10.265Z,9.50
2023-02-26T13:09:44.638Z,9.20
2023-02-26T13:12:26.039Z,9.09
2023-02-26T13:15:04.054Z,9.21
2023-02-26T13:17:41.244Z,9.27
2023-02-26T13:20:16.575Z,9.41
2023-02-26T13:22:48.595Z,9.17
2023-02-26T13:25:24.746Z,9.52
2023-02-26T13:27:55.883Z,8.82
2023-02-26T13:30:29.527Z,9.29
2023-02-26T13:32:59.302Z,9.32
2023-02-26T13:35:31.677Z,8.52
2023-02-26T13:38:02.799Z,9.08
2023-02-26T13:40:49.000Z,9.06
2023-02-26T13:43:38.004Z,9.03
2023-02-26T13:46:22.059Z,9.07
2023-02-26T13:48:57.558Z,8.99
2023-02-26T13:51:32.677Z,9.00
2023-02-26T13:54:04.401Z,9.84
2023-02-26T13:56:56.818Z,9.75
2023-02-26T13:59:54.858Z,8.87
2023-02-26T14:02:46.664Z,9.14
2023-02-26T14:06:01.191Z,9.05
2023-02-26T14:08:43.199Z,9.07
2023-02-26T14:11:41.315Z,9.09
2023-02-26T14:14:18.424Z,9.36
2023-02-26T14:16:50.723Z,9.17
2023-02-26T14:19:25.259Z,9.45
2023-02-26T14:21:57.624Z,9.72
2023-02-26T14:24:36.516Z,9.42
2023-02-26T14:27:32.457Z,9.84
2023-02-26T14:30:18.157Z,9.36
2023-02-26T14:32:50.855Z,8.84
2023-02-26T14:35:21.950Z,8.87
2023-02-26T14:37:58.958Z,8.71
2023-02-26T14:40:30.622Z,9.24
2023-02-26T14:43:01.506Z,8.92
2023-02-26T14:45:33.199Z,9.15
2023-02-26T14:48:03.022Z,8.89
2023-02-26T14:50:44.327Z,8.92
2023-02-26T14:53:32.607Z,8.99
2023-02-26T14:56:10.052Z,8.86
2023-02-26T14:58:51.444Z,8.86
2023-02-26T15:01:46.522Z,8.70
2023-02-26T15:04:47.673Z,8.92
2023-02-26T15:07:44.532Z,8.72
2023-02-26T15:10:25.922Z,8.90
2023-02-26T15:13:16.453Z,8.90
2023-02-26T15:15:54.059Z,9.05
2023-02-26T15:18:40.337Z,8.98
2023-02-26T15:21:18.944Z,9.06
2023-02-26T15:23:50.195Z,8.94
2023-02-26T15:26:23.159Z,8.70
2023-02-26T15:28:52.443Z,8.61
2023-02-26T15:31:21.964Z,9.11
2023-02-26T15:33:51.797Z,8.66
2023-02-26T15:36:24.282Z,8.66
2023-02-26T15:38:57.008Z,8.84
2023-02-26T15:41:27.261Z,8.02
2023-02-26T15:43:58.317Z,8.66
2023-02-26T15:46:31.559Z,8.73
2023-02-26T15:49:06.505Z,8.55
2023-02-26T15:51:34.840Z,8.47
2023-02-26T15:54:04.775Z,8.23
2023-02-26T15:56:36.897Z,8.44
2023-02-26T15:59:08.781Z,8.64
2023-02-26T16:01:37.208Z,8.68
2023-02-26T16:04:13.310Z,8.79
2023-02-26T16:06:43.024Z,8.63
2023-02-26T16:09:17.968Z,8.67
2023-02-26T16:11:47.592Z,8.58
2023-02-26T16:14:22.473Z,8.50
2023-02-26T16:16:52.542Z,8.93
2023-02-26T16:19:26.444Z,8.48
2023-02-26T16:21:56.374Z,8.19
2023-02-26T16:24:24.674Z,8.81
2023-02-26T16:26:58.265Z,8.65
2023-02-26T16:29:27.973Z,8.04
2023-02-26T16:31:57.818Z,8.27
2023-02-26T16:34:36.208Z,8.13
2023-02-26T16:37:25.132Z,7.97
2023-02-26T16:39:56.411Z,7.66
2023-02-26T16:42:34.803Z,7.83
2023-02-26T16:45:16.798Z,7.79
2023-02-26T16:47:46.835Z,7.78
2023-02-26T16:50:19.391Z,7.91
2023-02-26T16:52:54.446Z,7.95
2023-02-26T16:55:22.271Z,7.61
2023-02-26T16:57:50.696Z,7.28
2023-02-26T17:00:30.831Z,7.76
2023-02-26T17:03:03.791Z,7.77
2023-02-26T17:05:36.619Z,7.53
2023-02-26T17:08:09.491Z,7.45
2023-02-26T17:10:45.067Z,7.52
2023-02-26T17:13:16.628Z,7.50
2023-02-26T17:15:46.412Z,7.24
2023-02-26T17:18:14.578Z,7.12
2023-02-26T17:20:43.914Z,7.09
2023-02-26T17:23:15.276Z,7.26
2023-02-26T17:25:47.164Z,7.08
2023-02-26T17:28:21.872Z,7.13
2023-02-26T17:30:50.053Z,6.90
2023-02-26T17:33:17.831Z,7.01
2023-02-26T17:35:47.248Z,7.04
2023-02-26T17:38:16.585Z,6.83
2023-02-26T17:40:47.531Z,6.52
2023-02-26T17:43:15.495Z,6.66
2023-02-26T17:45:43.457Z,6.64
2023-02-26T17:48:14.303Z,6.72
2023-02-26T17:50:48.074Z,6.56
2023-02-26T17:53:16.159Z,6.23
2023-02-26T17:55:44.080Z,6.51
2023-02-26T17:58:16.690Z,6.54
2023-02-26T18:00:46.016Z,6.34
2023-02-26T18:03:14.012Z,6.47
2023-02-26T18:05:41.874Z,6.31
2023-02-26T18:08:21.864Z,6.29
2023-02-26T18:10:49.921Z,6.16
2023-02-26T18:13:17.984Z,5.84
2023-02-26T18:15:45.885Z,6.02
2023-02-26T18:18:15.173Z,6.32
2023-02-26T18:20:43.989Z,6.01
2023-02-26T18:23:13.881Z,5.96
2023-02-26T18:25:42.802Z,5.68
2023-02-26T18:28:15.464Z,5.69
2023-02-26T18:30:44.305Z,5.87
2023-02-26T18:33:12.216Z,6.09
2023-02-26T18:35:45.878Z,5.76
2023-02-26T18:38:15.611Z,5.93
2023-02-26T18:40:44.223Z,5.92
2023-02-26T18:43:12.678Z,5.70
2023-02-26T18:45:40.517Z,5.97
2023-02-26T18:48:09.212Z,6.03
2023-02-26T18:50:37.187Z,5.66
2023-02-26T18:53:05.346Z,5.87
2023-02-26T18:55:36.420Z,5.56
2023-02-26T18:58:05.914Z,5.66
2023-02-26T19:00:33.836Z,5.49
2023-02-26T19:03:01.696Z,5.45
2023-02-26T19:05:29.569Z,5.51
2023-02-26T19:07:57.333Z,5.44
2023-02-26T19:10:25.046Z,5.43
2023-02-26T19:12:54.223Z,5.37
2023-02-26T19:15:22.550Z,5.32
2023-02-26T19:17:50.252Z,5.29
2023-02-26T19:20:18.747Z,5.29
2023-02-26T19:22:47.095Z,5.20
2023-02-26T19:25:15.149Z,5.31
2023-02-26T19:27:42.976Z,5.37
2023-02-26T19:30:13.164Z,5.15
2023-02-26T19:32:40.961Z,5.42
2023-02-26T19:35:09.548Z,5.38
2023-02-26T19:37:37.495Z,5.28
2023-02-26T19:40:09.945Z,4.95
2023-02-26T19:42:38.034Z,4.81
2023-02-26T19:45:06.874Z,4.96
2023-02-26T19:47:36.005Z,5.13
2023-02-26T19:50:03.913Z,5.03
2023-02-26T19:52:31.800Z,4.91
2023-02-26T19:54:59.671Z,5.01
2023-02-26T19:57:28.554Z,5.07
2023-02-26T19:59:56.378Z,5.20
2023-02-26T20:02:24.299Z,5.24
2023-02-26T20:04:53.527Z,4.90
2023-02-26T20:07:21.649Z,5.03
2023-02-26T20:09:49.884Z,5.24
2023-02-26T20:12:17.687Z,4.85
2023-02-26T20:14:45.431Z,5.06
2023-02-26T20:17:13.231Z,5.35
2023-02-26T20:19:42.312Z,4.70
2023-02-26T20:22:12.204Z,4.96
2023-02-26T20:24:41.333Z,4.75
2023-02-26T20:27:09.533Z,4.91
2023-02-26T20:29:37.504Z,4.94
2023-02-26T20:32:05.996Z,4.91
2023-02-26T20:34:33.963Z,4.91
2023-02-26T20:37:01.821Z,4.88
2023-02-26T20:39:31.179Z,5.08
2023-02-26T20:41:59.520Z,4.77
2023-02-26T20:44:27.649Z,4.70
2023-02-26T20:46:55.981Z,4.60
2023-02-26T20:49:25.015Z,4.48
2023-02-26T20:51:54.669Z,4.55
2023-02-26T20:54:22.990Z,4.51
2023-02-26T20:56:53.313Z,4.11
2023-02-26T20:59:22.657Z,4.24
2023-02-26T21:01:53.893Z,4.29
2023-02-26T21:04:22.770Z,4.36
2023-02-26T21:06:53.305Z,4.24
2023-02-26T21:09:22.299Z,4.08
2023-02-26T21:11:52.989Z,4.11
2023-02-26T21:14:24.780Z,4.12
2023-02-26T21:16:54.884Z,4.39
2023-02-26T21:19:23.784Z,4.13
2023-02-26T21:21:51.929Z,4.37
2023-02-26T21:24:19.724Z,4.38
2023-02-26T21:26:47.786Z,4.42
2023-02-26T21:29:15.841Z,4.10
2023-02-26T21:31:45.109Z,3.93
2023-02-26T21:34:32.722Z,4.26
2023-02-26T21:37:01.219Z,4.37
2023-02-26T21:39:31.104Z,4.10
2023-02-26T21:42:03.506Z,4.07
2023-02-26T21:44:33.200Z,4.10
2023-02-26T21:47:03.275Z,3.88
2023-02-26T21:49:32.495Z,4.15
2023-02-26T21:52:01.007Z,4.07
2023-02-26T21:54:29.414Z,4.25
2023-02-26T21:56:57.567Z,4.16
2023-02-26T21:59:25.316Z,4.02
2023-02-26T22:01:54.104Z,3.99
2023-02-26T22:04:23.265Z,4.19
2023-02-26T22:06:51.289Z,4.28
2023-02-26T22:09:19.997Z,4.09
2023-02-26T22:11:48.082Z,3.83
2023-02-26T22:14:16.114Z,4.01
2023-02-26T22:16:43.913Z,3.99
2023-02-26T22:19:11.807Z,4.04
2023-02-26T22:21:40.914Z,4.04
2023-02-26T22:24:09.685Z,4.01
2023-02-26T22:26:37.466Z,3.93
2023-02-26T22:29:05.462Z,4.01
2023-02-26T22:31:33.657Z,3.98
2023-02-26T22:34:01.431Z,3.96
2023-02-26T22:36:31.428Z,4.01
2023-02-26T22:39:00.639Z,4.01
2023-02-26T22:41:28.396Z,3.89
2023-02-26T22:43:56.231Z,3.84
2023-02-26T22:46:25.335Z,4.04
2023-02-26T22:48:53.744Z,3.90
2023-02-26T22:51:21.565Z,3.93
2023-02-26T22:53:49.432Z,3.99
2023-02-26T22:56:18.574Z,3.88
2023-02-26T22:58:46.410Z,3.99
2023-02-26T23:01:14.217Z,3.88
2023-02-26T23:03:41.931Z,3.98
2023-02-26T23:06:09.981Z,3.83
2023-02-26T23:08:37.719Z,3.64
2023-02-26T23:11:06.788Z,3.60
2023-02-26T23:13:36.989Z,3.69
2023-02-26T23:16:08.326Z,3.85
2023-02-26T23:18:36.518Z,3.55
2023-02-26T23:21:05.259Z,3.56
2023-02-26T23:23:33.553Z,3.51
2023-02-26T23:26:01.493Z,3.63
2023-02-26T23:28:29.201Z,3.37
2023-02-26T23:30:58.422Z,3.20
2023-02-26T23:33:26.523Z,3.46
2023-02-26T23:35:54.310Z,3.24
2023-02-26T23:38:22.075Z,3.58
2023-02-26T23:40:49.841Z,3.50
2023-02-26T23:43:17.968Z,3.41
2023-02-26T23:45:45.749Z,3.57
2023-02-26T23:48:15.039Z,3.33
2023-02-26T23:50:42.831Z,3.53
2023-02-26T23:53:10.646Z,3.71
2023-02-26T23:55:38.481Z,3.48
2023-02-26T23:58:06.245Z,3.40
